createdAt,value
2017-03-11T00:02:34.077Z,4.80
2017-03-11T00:05:40.798Z,4.78
2017-03-11T00:08:38.171Z,4.77
2017-03-11T00:11:48.814Z,4.74
2017-03-11T00:14:53.903Z,4.73
2017-03-11T00:17:59.396Z,4.71
2017-03-11T00:21:04.056Z,4.70
2017-03-11T00:24:08.141Z,4.68
2017-03-11T00:27:15.111Z,4.65
2017-03-11T00:30:17.810Z,4.65
2017-03-11T00:33:22.990Z,4.64
2017-03-11T01:16:21.631Z,4.34
2017-03-11T01:19:25.927Z,4.37
2017-03-11T01:22:31.457Z,4.35
2017-03-11T01:28:40.716Z,4.36
2017-03-11T01:31:42.134Z,4.34
2017-03-11T01:34:46.717Z,4.33
2017-03-11T01:37:51.799Z,4.36
2017-03-11T01:40:56.680Z,4.36
2017-03-11T01:44:01.348Z,4.37
2017-03-11T02:26:57.474Z,4.40
2017-03-11T02:30:02.711Z,4.40
2017-03-11T03:06:58.456Z,4.41
2017-03-11T03:10:03.184Z,4.44
2017-03-11T03:13:03.367Z,4.43
2017-03-11T04:36:04.995Z,4.65
2017-03-11T04:39:04.695Z,4.65
2017-03-11T04:42:15.256Z,4.66
2017-03-11T04:45:20.403Z,4.68
2017-03-11T04:48:17.065Z,4.69
2017-03-11T04:51:32.692Z,4.68
2017-03-11T04:57:38.498Z,4.65
2017-03-11T05:00:39.099Z,4.64
2017-03-11T05:03:47.812Z,4.64
2017-03-11T05:06:54.258Z,4.63
2017-03-11T05:09:57.645Z,4.63
2017-03-11T05:13:02.340Z,4.64
2017-03-11T06:39:05.588Z,4.53
2017-03-11T06:54:27.301Z,4.56
2017-03-11T07:00:37.383Z,4.60
2017-03-11T07:03:42.511Z,4.65
2017-03-11T07:06:47.543Z,4.69
2017-03-11T07:09:52.793Z,4.73
2017-03-11T07:12:57.929Z,4.78
2017-03-11T07:19:06.610Z,4.85
2017-03-11T08:23:40.455Z,5.24
2017-03-11T08:51:15.907Z,5.42
2017-03-11T08:57:23.650Z,5.53
2017-03-11T09:09:38.155Z,5.61
2017-03-11T09:12:42.716Z,5.61
2017-03-11T09:46:32.713Z,5.98
2017-03-11T09:49:39.897Z,5.99
2017-03-11T09:52:42.336Z,5.99
2017-03-11T09:55:47.181Z,5.96
2017-03-11T09:58:52.475Z,5.95
2017-03-11T10:01:57.399Z,5.97
2017-03-11T10:05:03.470Z,6.05
2017-03-11T10:08:01.854Z,6.08
2017-03-11T10:11:12.513Z,6.11
2017-03-11T10:17:16.861Z,6.35
2017-03-11T10:20:20.712Z,6.82
2017-03-11T10:23:34.302Z,6.95
2017-03-11T10:26:39.498Z,7.02
2017-03-11T10:29:44.659Z,7.13
2017-03-11T10:32:49.140Z,7.25
2017-03-11T10:35:54.576Z,7.24
2017-03-11T10:38:59.648Z,7.16
2017-03-11T10:41:57.983Z,7.14
2017-03-11T10:45:10.930Z,7.20
2017-03-11T10:48:15.210Z,7.18
2017-03-11T10:51:12.642Z,7.36
2017-03-11T10:54:26.302Z,7.56
2017-03-11T10:57:26.597Z,7.68
2017-03-11T11:00:29.938Z,7.87
2017-03-11T11:03:37.918Z,7.87
2017-03-11T11:06:49.500Z,8.28
2017-03-11T11:09:54.473Z,8.74
2017-03-11T11:12:59.964Z,9.35
2017-03-11T11:16:04.885Z,9.38
2017-03-11T11:19:09.883Z,9.39
2017-03-11T11:22:07.116Z,9.47
2017-03-11T11:25:21.253Z,9.53
2017-03-11T11:28:18.515Z,9.64
2017-03-11T11:31:24.168Z,9.63
2017-03-11T11:34:37.914Z,9.28
2017-03-11T11:37:43.386Z,9.04
2017-03-11T11:40:50.776Z,8.93
2017-03-11T11:43:53.053Z,8.91
2017-03-11T11:46:58.446Z,8.93
2017-03-11T11:50:03.290Z,8.94
2017-03-11T11:53:08.843Z,8.90
2017-03-11T12:33:11.617Z,8.94
2017-03-11T12:36:13.264Z,9.02
2017-03-11T12:39:20.714Z,9.08
2017-03-11T12:42:15.054Z,9.23
2017-03-11T12:45:28.449Z,9.36
2017-03-11T12:48:33.912Z,9.47
2017-03-11T12:51:38.930Z,9.63
2017-03-11T12:54:44.482Z,9.90
2017-03-11T12:57:41.533Z,10.01
2017-03-11T13:00:57.505Z,10.53
2017-03-11T13:04:00.611Z,10.65
2017-03-11T13:07:06.216Z,10.66
2017-03-11T13:10:12.510Z,10.55
2017-03-11T13:13:17.136Z,10.42
2017-03-11T13:19:28.599Z,10.24
2017-03-11T13:22:30.549Z,10.27
2017-03-11T13:25:35.862Z,10.25
2017-03-11T13:28:41.256Z,10.09
2017-03-11T13:34:51.917Z,9.91
2017-03-11T13:37:59.142Z,9.87
2017-03-11T13:41:04.155Z,9.77
2017-03-11T13:44:06.951Z,9.77
2017-03-11T13:47:12.499Z,9.78
2017-03-11T13:50:17.432Z,9.84
2017-03-11T13:53:15.570Z,9.81
2017-03-11T15:51:39.240Z,10.18
2017-03-11T15:54:44.269Z,10.10
2017-03-11T16:00:53.538Z,10.00
2017-03-11T16:03:59.089Z,9.91
2017-03-11T17:14:03.391Z,7.83
2017-03-11T17:17:03.542Z,7.74
2017-03-11T17:20:06.182Z,7.67
2017-03-11T17:51:01.186Z,6.93
2017-03-11T17:54:05.948Z,6.85
2017-03-11T17:57:11.317Z,6.77
2017-03-11T18:00:16.707Z,6.75
2017-03-11T18:03:22.679Z,6.72
2017-03-11T18:27:57.927Z,6.10
2017-03-11T18:31:03.186Z,6.08
2017-03-11T18:34:08.424Z,6.01
2017-03-11T18:37:13.957Z,5.96
2017-03-11T18:43:23.623Z,5.93
2017-03-11T18:46:23.904Z,5.89
2017-03-11T18:49:34.759Z,5.83
2017-03-11T18:52:40.080Z,5.80
2017-03-11T18:55:37.117Z,5.77
2017-03-11T18:58:50.971Z,5.71
2017-03-11T19:01:50.864Z,5.65
2017-03-11T19:05:01.605Z,5.57
2017-03-11T19:11:12.529Z,5.48
2017-03-11T19:14:17.927Z,5.44
2017-03-11T19:17:23.169Z,5.40
2017-03-11T19:20:27.609Z,5.34
2017-03-11T19:23:32.853Z,5.28
2017-03-11T19:26:37.863Z,5.19
2017-03-11T19:29:43.390Z,5.12
2017-03-11T19:32:40.212Z,5.05
2017-03-11T19:35:53.963Z,5.00
2017-03-11T19:38:54.147Z,4.95
2017-03-11T19:42:04.326Z,4.94
2017-03-11T19:45:09.670Z,4.93
2017-03-11T19:48:14.907Z,4.94
2017-03-11T19:51:12.185Z,4.92
2017-03-11T19:54:28.058Z,4.88
2017-03-11T19:57:30.655Z,4.82
2017-03-11T20:03:40.908Z,4.72
2017-03-11T20:06:37.662Z,4.68
2017-03-11T20:09:53.349Z,4.69
2017-03-11T20:16:01.074Z,4.60
2017-03-11T20:19:06.455Z,4.56
2017-03-11T20:22:11.212Z,4.58
2017-03-11T20:25:16.490Z,4.58
2017-03-11T20:28:21.336Z,4.58
2017-03-11T20:31:26.714Z,4.56
2017-03-11T20:34:32.017Z,4.52
2017-03-11T20:37:37.227Z,4.49
2017-03-11T20:40:43.104Z,4.45
2017-03-11T20:43:43.764Z,4.42
2017-03-11T20:46:48.778Z,4.37
2017-03-11T20:49:53.634Z,4.31
2017-03-11T20:52:58.886Z,4.24
2017-03-11T20:55:55.873Z,4.20
2017-03-11T20:59:10.511Z,4.12
2017-03-11T21:02:12.709Z,4.07
2017-03-11T21:08:22.123Z,4.02
2017-03-11T21:14:32.023Z,3.92
2017-03-11T21:20:42.064Z,3.91
2017-03-11T21:23:39.177Z,3.88
2017-03-11T21:26:54.803Z,3.82
2017-03-11T21:29:59.441Z,3.79
2017-03-11T21:36:07.140Z,3.71
2017-03-11T21:39:11.669Z,3.69
2017-03-11T21:42:16.838Z,3.69
2017-03-11T21:45:21.996Z,3.64
2017-03-11T21:48:18.950Z,3.61
2017-03-11T21:51:24.452Z,3.59
2017-03-11T21:54:38.288Z,3.55
2017-03-11T21:57:42.964Z,3.54
2017-03-11T22:00:48.010Z,3.51
2017-03-11T22:03:52.904Z,3.47
2017-03-11T22:10:05.272Z,3.43
2017-03-11T22:12:57.700Z,3.38
2017-03-11T22:16:11.529Z,3.35
2017-03-11T22:19:16.340Z,3.31
2017-03-11T22:22:21.391Z,3.25
2017-03-11T22:28:32.061Z,3.18
2017-03-11T22:37:47.971Z,3.06
2017-03-11T22:40:52.268Z,3.03
2017-03-11T22:43:57.138Z,3.02
2017-03-11T22:47:01.892Z,3.00
2017-03-11T22:50:08.586Z,3.00
2017-03-11T22:53:10.443Z,2.94
2017-03-11T22:56:15.200Z,2.87
2017-03-11T22:59:20.162Z,2.87
2017-03-11T23:02:26.893Z,2.84
2017-03-11T23:05:31.314Z,2.78
2017-03-11T23:08:33.893Z,2.74
2017-03-11T23:11:39.135Z,2.70
2017-03-11T23:14:43.962Z,2.66
2017-03-11T23:17:49.441Z,2.63
2017-03-11T23:20:45.089Z,2.60
2017-03-11T23:23:58.691Z,2.58
2017-03-11T23:27:04.857Z,2.56
2017-03-11T23:30:07.297Z,2.56
2017-03-11T23:33:12.350Z,2.53
2017-03-11T23:36:10.286Z,2.50
2017-03-11T23:39:22.792Z,2.47
2017-03-11T23:42:27.551Z,2.46
2017-03-11T23:45:32.539Z,2.42
2017-03-11T23:48:37.045Z,2.40
2017-03-11T23:51:33.880Z,2.37
2017-03-11T23:54:39.091Z,2.34
2017-03-11T23:57:48.244Z,2.31
